createdAt,value
2023-09-25T00:01:57.335Z,102487.25
2023-09-25T00:04:26.650Z,102491.94
2023-09-25T00:06:54.965Z,102486.31
2023-09-25T00:09:22.778Z,102499.66
2023-09-25T00:11:50.434Z,102505.59
2023-09-25T00:14:17.995Z,102505.81
2023-09-25T00:16:45.603Z,102508.59
2023-09-25T00:19:13.270Z,102508.28
2023-09-25T00:21:41.888Z,102513.13
2023-09-25T00:24:09.755Z,102510.94
2023-09-25T00:26:37.593Z,102506.47
2023-09-25T00:29:05.460Z,102510.75
2023-09-25T00:31:33.137Z,102520.94
2023-09-25T00:34:00.721Z,102528.41
2023-09-25T00:36:28.695Z,102532.59
2023-09-25T00:38:56.455Z,102527.63
2023-09-25T00:41:24.383Z,102525.69
2023-09-25T00:43:52.220Z,102522.94
2023-09-25T00:46:19.831Z,102525.50
2023-09-25T00:48:47.763Z,102525.50
2023-09-25T00:51:15.519Z,102536.91
2023-09-25T00:53:46.094Z,102532.69
2023-09-25T00:56:13.639Z,102537.56
2023-09-25T00:58:41.609Z,102525.75
2023-09-25T01:01:09.716Z,102524.06
2023-09-25T01:03:37.539Z,102524.84
2023-09-25T01:06:06.475Z,102519.06
2023-09-25T01:08:34.178Z,102524.50
2023-09-25T01:11:01.786Z,102530.94
2023-09-25T01:13:29.804Z,102523.13
2023-09-25T01:15:57.367Z,102519.59
2023-09-25T01:18:25.292Z,102531.72
2023-09-25T01:20:52.913Z,102534.44
2023-09-25T01:23:20.873Z,102531.28
2023-09-25T01:25:48.683Z,102531.28
2023-09-25T01:28:16.532Z,102538.22
2023-09-25T01:30:44.273Z,102534.81
2023-09-25T01:33:14.323Z,102535.22
2023-09-25T01:35:42.792Z,102531.09
2023-09-25T01:38:10.540Z,102537.34
2023-09-25T01:40:38.370Z,102542.09
2023-09-25T01:43:06.103Z,102539.59
2023-09-25T01:45:34.841Z,102537.63
2023-09-25T01:48:02.717Z,102550.75
2023-09-25T01:50:30.620Z,102551.44
2023-09-25T01:53:00.056Z,102549.63
2023-09-25T01:55:29.360Z,102560.72
2023-09-25T01:57:57.209Z,102573.16
2023-09-25T02:00:25.407Z,102561.00
2023-09-25T02:02:53.024Z,102567.84
2023-09-25T02:05:20.981Z,102554.53
2023-09-25T02:07:49.771Z,102543.34
2023-09-25T02:10:17.352Z,102551.53
2023-09-25T02:12:45.107Z,102565.91
2023-09-25T02:15:12.765Z,102558.34
2023-09-25T02:17:40.620Z,102572.28
2023-09-25T02:20:21.425Z,102569.91
2023-09-25T02:22:50.541Z,102571.88
2023-09-25T02:25:18.491Z,102578.13
2023-09-25T02:27:47.127Z,102572.63
2023-09-25T02:30:15.527Z,102577.25
2023-09-25T02:32:44.887Z,102575.91
2023-09-25T02:35:13.332Z,102583.00
2023-09-25T02:37:42.783Z,102581.22
2023-09-25T02:40:15.087Z,102580.19
2023-09-25T02:42:43.738Z,102592.09
2023-09-25T02:45:12.272Z,102594.03
2023-09-25T02:47:40.231Z,102603.31
2023-09-25T02:50:09.827Z,102594.22
2023-09-25T02:52:38.028Z,102604.09
2023-09-25T02:55:06.133Z,102604.13
2023-09-25T02:57:33.779Z,102599.75
2023-09-25T03:00:01.352Z,102599.41
2023-09-25T03:02:28.881Z,102591.78
2023-09-25T03:04:56.423Z,102596.63
2023-09-25T03:07:23.882Z,102593.53
2023-09-25T03:09:51.917Z,102598.50
2023-09-25T03:12:20.262Z,102612.72
2023-09-25T03:14:47.959Z,102612.88
2023-09-25T03:17:15.890Z,102618.88
2023-09-25T03:19:43.386Z,102625.16
2023-09-25T03:22:10.918Z,102620.63
2023-09-25T03:24:38.471Z,102629.34
2023-09-25T03:27:06.041Z,102627.88
2023-09-25T03:29:33.851Z,102626.84
2023-09-25T03:32:01.592Z,102620.78
2023-09-25T03:34:29.083Z,102614.81
2023-09-25T03:36:56.892Z,102623.22
2023-09-25T03:39:24.638Z,102621.81
2023-09-25T03:41:52.132Z,102637.53
2023-09-25T03:44:19.909Z,102639.88
2023-09-25T03:46:47.692Z,102638.69
2023-09-25T03:49:15.255Z,102640.31
2023-09-25T03:51:43.072Z,102646.41
2023-09-25T03:54:12.021Z,102649.53
2023-09-25T03:56:39.577Z,102652.13
2023-09-25T03:59:07.314Z,102655.09
2023-09-25T04:01:34.824Z,102662.22
2023-09-25T04:04:02.866Z,102665.03
2023-09-25T04:06:30.444Z,102656.97
2023-09-25T04:08:57.959Z,102665.19
2023-09-25T04:11:25.847Z,102662.22
2023-09-25T04:13:54.300Z,102664.53
2023-09-25T04:16:23.712Z,102670.19
2023-09-25T04:18:51.828Z,102666.34
2023-09-25T04:21:19.677Z,102668.84
2023-09-25T04:23:47.275Z,102669.47
2023-09-25T04:26:15.201Z,102675.66
2023-09-25T04:28:42.987Z,102678.53
2023-09-25T04:31:13.890Z,102683.47
2023-09-25T04:33:41.749Z,102687.91
2023-09-25T04:36:11.678Z,102699.41
2023-09-25T04:38:40.221Z,102691.81
2023-09-25T04:41:07.831Z,102696.25
2023-09-25T04:43:35.371Z,102696.91
2023-09-25T04:46:03.060Z,102695.50
2023-09-25T04:48:31.161Z,102692.03
2023-09-25T04:50:59.352Z,102698.38
2023-09-25T04:53:27.174Z,102713.63
2023-09-25T04:55:54.765Z,102707.81
2023-09-25T04:58:22.284Z,102708.19
2023-09-25T05:00:49.959Z,102710.00
2023-09-25T05:03:17.685Z,102714.16
2023-09-25T05:05:46.180Z,102719.63
2023-09-25T05:08:13.795Z,102717.38
2023-09-25T05:10:42.259Z,102715.75
2023-09-25T05:13:10.324Z,102721.66
2023-09-25T05:15:38.152Z,102721.50
2023-09-25T05:18:06.186Z,102728.56
2023-09-25T05:20:33.793Z,102734.78
2023-09-25T05:23:01.580Z,102731.03
2023-09-25T05:25:29.584Z,102736.72
2023-09-25T05:27:59.450Z,102743.28
2023-09-25T05:30:27.263Z,102739.16
2023-09-25T05:32:54.880Z,102739.34
2023-09-25T05:35:22.685Z,102745.94
2023-09-25T05:37:50.984Z,102746.38
2023-09-25T05:40:19.790Z,102746.84
2023-09-25T05:42:48.892Z,102753.63
2023-09-25T05:45:19.137Z,102746.56
2023-09-25T05:47:46.835Z,102757.06
2023-09-25T05:50:15.296Z,102756.28
2023-09-25T05:52:43.264Z,102752.81
2023-09-25T05:55:14.040Z,102765.06
2023-09-25T05:57:43.047Z,102768.25
2023-09-25T06:00:14.382Z,102765.31
2023-09-25T06:02:43.679Z,102759.41
2023-09-25T06:05:15.360Z,102761.63
2023-09-25T06:07:43.684Z,102757.78
2023-09-25T06:10:12.844Z,102757.78
2023-09-25T06:12:41.126Z,102762.84
2023-09-25T06:15:12.883Z,102765.50
2023-09-25T06:17:42.234Z,102760.03
2023-09-25T06:20:17.563Z,102766.03
2023-09-25T06:22:46.093Z,102772.47
2023-09-25T06:25:18.965Z,102777.19
2023-09-25T06:27:48.072Z,102781.13
2023-09-25T06:30:17.608Z,102784.59
2023-09-25T06:32:45.457Z,102783.44
2023-09-25T06:35:14.052Z,102790.69
2023-09-25T06:37:42.092Z,102792.13
2023-09-25T06:40:17.223Z,102794.28
2023-09-25T06:42:45.141Z,102785.22
2023-09-25T06:45:12.713Z,102786.59
2023-09-25T06:47:40.347Z,102782.34
2023-09-25T06:50:07.992Z,102780.72
2023-09-25T06:52:37.535Z,102785.28
2023-09-25T06:55:05.661Z,102784.25
2023-09-25T06:57:33.229Z,102786.03
2023-09-25T07:00:01.752Z,102788.59
2023-09-25T07:02:29.328Z,102782.44
2023-09-25T07:04:59.618Z,102787.59
2023-09-25T07:07:27.445Z,102792.09
2023-09-25T07:09:55.386Z,102794.97
2023-09-25T07:12:24.433Z,102792.97
2023-09-25T07:14:57.915Z,102791.34
2023-09-25T07:17:26.120Z,102784.69
2023-09-25T07:19:54.542Z,102786.63
2023-09-25T07:22:23.782Z,102798.84
2023-09-25T07:24:52.113Z,102799.25
2023-09-25T07:27:20.008Z,102791.50
2023-09-25T07:29:49.141Z,102797.72
2023-09-25T07:32:17.114Z,102794.25
2023-09-25T07:34:46.327Z,102804.16
2023-09-25T07:37:14.240Z,102806.72
2023-09-25T07:39:42.321Z,102803.53
2023-09-25T07:42:10.906Z,102817.09
2023-09-25T07:44:39.277Z,102814.28
2023-09-25T07:47:08.421Z,102811.34
2023-09-25T07:49:42.023Z,102812.66
2023-09-25T07:52:17.119Z,102810.03
2023-09-25T07:54:52.534Z,102811.44
2023-09-25T07:57:22.170Z,102812.88
2023-09-25T07:59:50.072Z,102810.19
2023-09-25T08:02:22.060Z,102813.41
2023-09-25T08:04:50.799Z,102814.91
2023-09-25T08:07:20.281Z,102812.94
2023-09-25T08:09:48.440Z,102822.84
2023-09-25T08:12:16.367Z,102818.16
2023-09-25T08:14:44.133Z,102814.75
2023-09-25T08:17:12.147Z,102819.31
2023-09-25T08:19:39.563Z,102822.28
2023-09-25T08:22:08.311Z,102823.03
2023-09-25T08:24:35.818Z,102817.41
2023-09-25T08:27:05.930Z,102820.34
2023-09-25T08:29:33.794Z,102822.38
2023-09-25T08:32:02.223Z,102826.88
2023-09-25T08:34:30.234Z,102828.91
2023-09-25T08:36:57.996Z,102834.13
2023-09-25T08:39:25.593Z,102837.97
2023-09-25T08:41:53.143Z,102831.88
2023-09-25T08:44:21.598Z,102837.97
2023-09-25T08:46:49.841Z,102842.78
2023-09-25T08:49:17.790Z,102835.69
2023-09-25T08:51:45.871Z,102835.81
2023-09-25T08:54:14.109Z,102847.66
2023-09-25T08:56:42.756Z,102851.19
2023-09-25T08:59:12.498Z,102849.94
2023-09-25T09:01:40.249Z,102857.06
2023-09-25T09:04:10.806Z,102856.69
2023-09-25T09:06:39.162Z,102855.06
2023-09-25T09:09:09.217Z,102855.47
2023-09-25T09:11:39.519Z,102855.72
2023-09-25T09:14:07.929Z,102855.84
2023-09-25T09:16:35.474Z,102863.31
2023-09-25T09:19:10.169Z,102861.75
2023-09-25T09:21:38.189Z,102855.44
2023-09-25T09:24:09.364Z,102860.59
2023-09-25T09:26:41.954Z,102854.16
2023-09-25T09:29:14.335Z,102854.56
2023-09-25T09:31:42.845Z,102866.00
2023-09-25T09:34:10.430Z,102864.72
2023-09-25T09:36:38.587Z,102864.28
2023-09-25T09:39:12.028Z,102860.25
2023-09-25T09:41:42.469Z,102872.75
2023-09-25T09:44:10.398Z,102867.63
2023-09-25T09:46:40.345Z,102871.50
2023-09-25T09:49:09.628Z,102874.72
2023-09-25T09:51:37.568Z,102873.38
2023-09-25T09:54:07.004Z,102867.19
2023-09-25T09:56:37.033Z,102871.28
2023-09-25T09:59:05.044Z,102877.47
2023-09-25T10:01:36.672Z,102873.28
2023-09-25T10:04:06.827Z,102873.03
2023-09-25T10:06:45.333Z,102875.53
2023-09-25T10:09:13.019Z,102882.69
2023-09-25T10:11:43.648Z,102875.81
2023-09-25T10:14:11.463Z,102883.13
2023-09-25T10:17:03.546Z,102880.28
2023-09-25T10:19:37.722Z,102888.53
2023-09-25T10:22:17.691Z,102887.94
2023-09-25T10:24:48.027Z,102900.94
2023-09-25T10:27:17.675Z,102890.56
2023-09-25T10:30:04.077Z,102888.06
2023-09-25T10:32:33.002Z,102886.03
2023-09-25T10:35:38.194Z,102885.72
2023-09-25T10:38:31.689Z,102894.59
2023-09-25T10:41:06.291Z,102885.84
2023-09-25T10:43:35.781Z,102886.78
2023-09-25T10:46:04.828Z,102898.41
2023-09-25T10:48:33.906Z,102891.47
2023-09-25T10:51:01.615Z,102889.75
2023-09-25T10:53:29.536Z,102892.31
2023-09-25T10:55:57.623Z,102892.97
2023-09-25T10:58:25.590Z,102888.81
2023-09-25T11:00:53.758Z,102890.97
2023-09-25T11:03:21.874Z,102888.09
2023-09-25T11:05:50.340Z,102883.59
2023-09-25T11:08:19.615Z,102899.44
2023-09-25T11:10:48.848Z,102898.59
2023-09-25T11:13:16.294Z,102896.97
2023-09-25T11:15:45.480Z,102895.25
2023-09-25T11:18:13.481Z,102887.22
2023-09-25T11:20:42.541Z,102886.16
2023-09-25T11:23:20.921Z,102891.72
2023-09-25T11:25:51.859Z,102894.31
2023-09-25T11:28:21.918Z,102884.34
2023-09-25T11:30:50.882Z,102883.38
2023-09-25T11:33:21.699Z,102879.84
2023-09-25T11:35:53.815Z,102880.78
2023-09-25T11:38:25.157Z,102876.50
2023-09-25T11:40:54.152Z,102885.63
2023-09-25T11:43:25.978Z,102894.06
2023-09-25T11:45:54.412Z,102885.19
2023-09-25T11:48:23.698Z,102889.22
2023-09-25T11:50:51.956Z,102896.53
2023-09-25T11:53:19.824Z,102890.09
2023-09-25T11:55:50.412Z,102894.72
2023-09-25T11:58:19.291Z,102891.81
2023-09-25T12:00:47.385Z,102890.63
2023-09-25T12:03:15.332Z,102882.38
2023-09-25T12:05:43.251Z,102895.47
2023-09-25T12:08:13.708Z,102892.06
2023-09-25T12:10:41.340Z,102899.59
2023-09-25T12:13:10.667Z,102897.72
2023-09-25T12:15:39.018Z,102893.38
2023-09-25T12:18:08.195Z,102891.00
2023-09-25T12:20:43.143Z,102892.81
2023-09-25T12:23:11.817Z,102890.69
2023-09-25T12:25:39.655Z,102885.22
2023-09-25T12:28:08.132Z,102883.81
2023-09-25T12:30:36.638Z,102884.34
2023-09-25T12:33:05.309Z,102877.81
2023-09-25T12:35:33.132Z,102881.13
2023-09-25T12:38:00.812Z,102885.88
2023-09-25T12:40:31.287Z,102882.44
2023-09-25T12:42:59.198Z,102876.88
2023-09-25T12:45:26.960Z,102880.19
2023-09-25T12:47:54.765Z,102882.97
2023-09-25T12:50:22.768Z,102879.63
2023-09-25T12:52:50.442Z,102878.91
2023-09-25T12:55:17.986Z,102882.09
2023-09-25T12:57:45.627Z,102883.06
2023-09-25T13:00:13.701Z,102889.59
2023-09-25T13:02:41.231Z,102879.53
2023-09-25T13:05:09.724Z,102881.66
2023-09-25T13:07:37.761Z,102884.03
2023-09-25T13:10:06.835Z,102880.84
2023-09-25T13:12:34.669Z,102881.66
2023-09-25T13:15:04.699Z,102880.41
2023-09-25T13:17:32.656Z,102877.16
2023-09-25T13:20:08.473Z,102877.94
2023-09-25T13:22:37.961Z,102877.28
2023-09-25T13:25:06.766Z,102872.81
2023-09-25T13:27:34.870Z,102874.41
2023-09-25T13:30:02.825Z,102874.81
2023-09-25T13:32:30.457Z,102873.75
2023-09-25T13:34:58.049Z,102877.81
2023-09-25T13:37:25.556Z,102881.47
2023-09-25T13:39:54.332Z,102877.38
2023-09-25T13:42:21.831Z,102875.13
2023-09-25T13:44:49.309Z,102881.56
2023-09-25T13:47:16.772Z,102874.94
2023-09-25T13:49:45.405Z,102872.88
2023-09-25T13:52:14.030Z,102876.44
2023-09-25T13:54:41.856Z,102875.56
2023-09-25T13:57:11.784Z,102878.25
2023-09-25T13:59:41.444Z,102887.03
2023-09-25T14:02:09.214Z,102882.53
2023-09-25T14:04:36.953Z,102876.13
2023-09-25T14:07:04.558Z,102876.88
2023-09-25T14:09:32.136Z,102863.47
2023-09-25T14:11:59.708Z,102868.19
2023-09-25T14:14:41.528Z,102872.69
2023-09-25T14:17:09.655Z,102871.72
2023-09-25T14:19:37.135Z,102865.41
2023-09-25T14:22:05.889Z,102865.41
2023-09-25T14:24:33.772Z,102862.81
2023-09-25T14:27:02.946Z,102870.75
2023-09-25T14:29:32.465Z,102869.13
2023-09-25T14:32:00.084Z,102863.91
2023-09-25T14:34:27.793Z,102871.16
2023-09-25T14:36:55.291Z,102863.56
2023-09-25T14:39:29.894Z,102862.91
2023-09-25T14:41:58.039Z,102858.56
2023-09-25T14:44:26.886Z,102858.63
2023-09-25T14:46:55.123Z,102855.22
2023-09-25T14:49:23.238Z,102855.22
2023-09-25T14:51:54.362Z,102855.09
2023-09-25T14:54:22.321Z,102845.38
2023-09-25T14:56:50.105Z,102837.44
2023-09-25T14:59:18.606Z,102844.19
2023-09-25T15:01:49.482Z,102840.00
2023-09-25T15:04:20.358Z,102842.06
2023-09-25T15:06:48.217Z,102847.28
2023-09-25T15:09:16.600Z,102850.16
2023-09-25T15:11:44.245Z,102852.41
2023-09-25T15:14:14.134Z,102845.34
2023-09-25T15:16:41.961Z,102841.91
2023-09-25T15:19:09.939Z,102844.47
2023-09-25T15:21:37.936Z,102835.41
2023-09-25T15:24:05.738Z,102848.22
2023-09-25T15:26:33.791Z,102848.78
2023-09-25T15:29:01.669Z,102843.28
2023-09-25T15:31:29.504Z,102840.81
2023-09-25T15:33:57.798Z,102842.00
2023-09-25T15:36:25.657Z,102845.44
2023-09-25T15:38:53.307Z,102849.28
2023-09-25T15:41:21.096Z,102851.75
2023-09-25T15:43:48.964Z,102846.69
2023-09-25T15:46:17.141Z,102844.00
2023-09-25T15:48:44.921Z,102847.56
2023-09-25T15:51:13.000Z,102835.66
2023-09-25T15:53:40.566Z,102838.44
2023-09-25T15:56:08.267Z,102837.03
2023-09-25T15:58:35.794Z,102839.50
2023-09-25T16:01:03.635Z,102834.25
2023-09-25T16:03:31.516Z,102839.34
2023-09-25T16:05:59.294Z,102835.72
2023-09-25T16:08:26.833Z,102835.84
2023-09-25T16:10:54.697Z,102837.66
2023-09-25T16:13:22.446Z,102833.16
2023-09-25T16:15:50.334Z,102843.53
2023-09-25T16:18:18.266Z,102840.00
2023-09-25T16:20:45.941Z,102835.06
2023-09-25T16:23:13.539Z,102838.03
2023-09-25T16:25:41.344Z,102840.63
2023-09-25T16:28:09.117Z,102832.91
2023-09-25T16:30:38.386Z,102832.97
2023-09-25T16:33:08.943Z,102833.03
2023-09-25T16:35:36.666Z,102829.84
2023-09-25T16:38:04.618Z,102829.41
2023-09-25T16:40:32.211Z,102829.94
2023-09-25T16:42:59.768Z,102840.47
2023-09-25T16:45:27.829Z,102841.41
2023-09-25T16:47:55.596Z,102843.13
2023-09-25T16:50:25.838Z,102844.84
2023-09-25T16:52:53.307Z,102838.69
2023-09-25T16:55:20.850Z,102839.44
2023-09-25T16:57:48.519Z,102828.50
2023-09-25T17:00:17.011Z,102831.38
2023-09-25T17:02:45.220Z,102830.00
2023-09-25T17:05:13.003Z,102824.66
2023-09-25T17:07:41.369Z,102828.00
2023-09-25T17:10:09.355Z,102830.69
2023-09-25T17:12:36.940Z,102832.88
2023-09-25T17:15:05.033Z,102830.78
2023-09-25T17:17:32.680Z,102832.72
2023-09-25T17:20:00.422Z,102834.84
2023-09-25T17:22:28.042Z,102825.56
2023-09-25T17:24:57.081Z,102827.28
2023-09-25T17:27:24.904Z,102825.75
2023-09-25T17:29:54.259Z,102825.31
2023-09-25T17:32:22.020Z,102830.53
2023-09-25T17:34:49.928Z,102828.25
2023-09-25T17:37:17.509Z,102823.97
2023-09-25T17:39:45.030Z,102826.44
2023-09-25T17:42:12.594Z,102820.66
2023-09-25T17:44:40.118Z,102820.75
2023-09-25T17:47:09.072Z,102825.03
2023-09-25T17:49:36.811Z,102823.91
2023-09-25T17:52:17.880Z,102820.44
2023-09-25T17:54:51.650Z,102826.47
2023-09-25T17:57:20.132Z,102827.31
2023-09-25T17:59:48.026Z,102825.53
2023-09-25T18:02:16.065Z,102823.44
2023-09-25T18:04:44.867Z,102825.91
2023-09-25T18:07:12.416Z,102828.59
2023-09-25T18:09:40.144Z,102830.59
2023-09-25T18:12:07.831Z,102821.63
2023-09-25T18:14:36.843Z,102823.75
2023-09-25T18:17:04.863Z,102819.44
2023-09-25T18:19:32.519Z,102812.50
2023-09-25T18:22:00.412Z,102806.47
2023-09-25T18:24:29.857Z,102813.91
2023-09-25T18:26:57.907Z,102804.47
2023-09-25T18:29:25.667Z,102798.66
2023-09-25T18:31:53.516Z,102787.03
2023-09-25T18:34:22.422Z,102790.47
2023-09-25T18:36:50.305Z,102790.72
2023-09-25T18:39:21.266Z,102776.25
2023-09-25T18:41:49.381Z,102783.91
2023-09-25T18:44:22.182Z,102788.19
2023-09-25T18:46:53.022Z,102790.66
2023-09-25T18:49:21.082Z,102792.84
2023-09-25T18:51:48.963Z,102792.19
2023-09-25T18:54:16.961Z,102798.00
2023-09-25T18:56:44.678Z,102798.97
2023-09-25T18:59:12.225Z,102806.09
2023-09-25T19:01:40.331Z,102799.31
2023-09-25T19:04:08.327Z,102801.47
2023-09-25T19:06:35.905Z,102797.47
2023-09-25T19:09:06.769Z,102809.22
2023-09-25T19:11:34.707Z,102803.19
2023-09-25T19:14:02.417Z,102812.84
2023-09-25T19:16:30.099Z,102807.13
2023-09-25T19:19:00.045Z,102810.84
2023-09-25T19:21:28.982Z,102811.97
2023-09-25T19:23:59.021Z,102812.16
2023-09-25T19:26:27.418Z,102814.00
2023-09-25T19:28:56.561Z,102815.88
2023-09-25T19:31:39.333Z,102806.94
2023-09-25T19:34:11.035Z,102822.22
2023-09-25T19:36:42.162Z,102814.13
2023-09-25T19:39:09.975Z,102811.88
2023-09-25T19:41:37.723Z,102811.63
2023-09-25T19:44:06.788Z,102806.88
2023-09-25T19:46:36.103Z,102808.41
2023-09-25T19:49:07.240Z,102813.81
2023-09-25T19:51:36.544Z,102813.16
2023-09-25T19:54:05.229Z,102808.94
2023-09-25T19:56:32.970Z,102817.47
2023-09-25T19:59:00.700Z,102806.06
2023-09-25T20:01:29.036Z,102819.50
2023-09-25T20:03:56.859Z,102821.69
2023-09-25T20:06:25.024Z,102810.47
2023-09-25T20:08:52.791Z,102812.66
2023-09-25T20:11:20.336Z,102814.06
2023-09-25T20:13:48.381Z,102817.22
2023-09-25T20:16:16.298Z,102819.50
2023-09-25T20:18:43.922Z,102815.31
2023-09-25T20:21:12.912Z,102820.56
2023-09-25T20:23:40.456Z,102826.38
2023-09-25T20:26:09.647Z,102827.41
2023-09-25T20:28:38.562Z,102824.88
2023-09-25T20:31:07.092Z,102834.28
2023-09-25T20:33:34.773Z,102828.75
2023-09-25T20:36:04.858Z,102832.75
2023-09-25T20:38:33.360Z,102840.56
2023-09-25T20:41:01.963Z,102832.69
2023-09-25T20:43:29.578Z,102831.25
2023-09-25T20:45:57.183Z,102842.72
2023-09-25T20:48:24.789Z,102836.66
2023-09-25T20:50:52.522Z,102838.09
2023-09-25T20:53:20.582Z,102836.78
2023-09-25T20:55:48.799Z,102849.25
2023-09-25T20:58:16.702Z,102847.84
2023-09-25T21:00:44.532Z,102844.31
2023-09-25T21:03:12.368Z,102845.53
2023-09-25T21:05:39.974Z,102841.53
2023-09-25T21:08:07.567Z,102839.22
2023-09-25T21:10:35.074Z,102830.16
2023-09-25T21:13:04.586Z,102834.56
2023-09-25T21:15:33.306Z,102836.44
2023-09-25T21:18:01.962Z,102831.16
2023-09-25T21:20:29.782Z,102832.38
2023-09-25T21:22:57.341Z,102822.88
2023-09-25T21:25:24.901Z,102824.88
2023-09-25T21:27:54.209Z,102826.97
2023-09-25T21:30:21.847Z,102821.22
2023-09-25T21:32:49.674Z,102828.19
2023-09-25T21:35:17.244Z,102823.03
2023-09-25T21:37:44.826Z,102824.28
2023-09-25T21:40:12.761Z,102821.34
2023-09-25T21:42:40.503Z,102812.75
2023-09-25T21:45:08.620Z,102817.59
2023-09-25T21:47:37.802Z,102828.97
2023-09-25T21:50:06.122Z,102827.72
2023-09-25T21:52:33.771Z,102827.41
2023-09-25T21:55:03.604Z,102834.88
2023-09-25T21:57:33.000Z,102828.84
2023-09-25T22:00:00.458Z,102835.91
2023-09-25T22:02:27.985Z,102833.31
2023-09-25T22:04:55.528Z,102828.56
2023-09-25T22:07:23.176Z,102836.09
2023-09-25T22:09:50.797Z,102836.97
2023-09-25T22:12:18.355Z,102838.84
2023-09-25T22:14:45.851Z,102832.69
2023-09-25T22:17:13.404Z,102834.03
2023-09-25T22:19:41.205Z,102825.97
2023-09-25T22:22:09.063Z,102828.09
2023-09-25T22:24:36.822Z,102820.66
2023-09-25T22:27:04.350Z,102826.84
2023-09-25T22:29:31.934Z,102817.16
2023-09-25T22:32:01.478Z,102824.94
2023-09-25T22:34:29.300Z,102825.69
2023-09-25T22:36:57.169Z,102822.09
2023-09-25T22:39:25.993Z,102823.88
2023-09-25T22:41:53.514Z,102829.03
2023-09-25T22:44:22.321Z,102819.91
2023-09-25T22:46:49.884Z,102819.59
2023-09-25T22:49:17.683Z,102806.75
2023-09-25T22:51:45.348Z,102806.75
2023-09-25T22:54:12.879Z,102796.81
2023-09-25T22:56:40.591Z,102811.88
2023-09-25T22:59:08.034Z,102810.47
2023-09-25T23:01:35.902Z,102807.59
2023-09-25T23:04:04.682Z,102803.88
2023-09-25T23:06:32.500Z,102803.00
2023-09-25T23:08:59.989Z,102799.41
2023-09-25T23:11:27.684Z,102792.34
2023-09-25T23:13:56.166Z,102793.28
2023-09-25T23:16:23.724Z,102783.66
2023-09-25T23:18:51.880Z,102791.84
2023-09-25T23:21:19.560Z,102795.84
2023-09-25T23:23:47.310Z,102786.03
2023-09-25T23:26:14.815Z,102792.31
2023-09-25T23:28:42.276Z,102804.16
2023-09-25T23:31:10.823Z,102786.44
2023-09-25T23:33:38.598Z,102786.25
2023-09-25T23:36:06.694Z,102786.91
2023-09-25T23:38:34.227Z,102783.56
2023-09-25T23:41:01.788Z,102787.09
2023-09-25T23:43:29.284Z,102778.97
2023-09-25T23:45:57.209Z,102789.00
2023-09-25T23:48:24.906Z,102781.84
2023-09-25T23:50:54.116Z,102773.94
2023-09-25T23:53:21.614Z,102773.75
2023-09-25T23:55:49.100Z,102773.00
2023-09-25T23:58:16.702Z,102772.69
